Lizarda, Brazil
Current Conditions -  °F | °C
As of 2:00 AM on Thursday 18 Dec 2014 (Local Time) from SBPJ Reporting Station
Broken Clouds Broken Clouds  
Wind Chill: 75°   Ceiling: 2000
Heat Index: 75°   Visibility: 6mi
Dew Point: 68°   Wind: 8mph
Humidity: 78%   Direction: 30°NNE
Pressure: 29.88"   Gusts: NA
Location:  9.58°S, 46.68°W
Report Text: SBPJ 180500Z 03007KT 9999 FEW010 BKN020 FEW035TCU 24/20 Q1012
Loading
Personal Weather Stations






























Interactive Weather Map New forecast layout! Learn more

10-Day Weather Forecast

Advertisements
Track Severe Weather on mobile